createdAt,value
2019-03-29T11:08:33.393Z,8.20
2019-03-29T11:11:07.841Z,9.50
2019-03-29T11:13:42.374Z,7.75
2019-03-29T11:16:16.822Z,8.08
2019-03-29T11:18:51.304Z,7.83
2019-03-29T11:21:25.795Z,7.45
2019-03-29T11:24:00.743Z,7.42
2019-03-29T11:26:35.179Z,8.03
2019-03-29T11:29:09.655Z,7.72
2019-03-29T11:31:44.092Z,7.40
2019-03-29T11:34:21.075Z,7.65
2019-03-29T11:36:55.846Z,7.30
2019-03-29T11:39:30.310Z,7.20
2019-03-29T11:42:06.395Z,7.03
2019-03-29T11:44:42.503Z,7.87
2019-03-29T11:47:21.519Z,7.00
2019-03-29T11:49:55.991Z,6.53
2019-03-29T11:52:33.648Z,6.83
2019-03-29T11:55:07.687Z,7.50
2019-03-29T11:57:42.124Z,6.37
2019-03-29T12:00:19.855Z,6.58
2019-03-29T12:02:55.457Z,6.45
2019-03-29T12:05:29.889Z,6.50
2019-03-29T12:08:04.724Z,6.25
2019-03-29T12:10:39.208Z,5.90
2019-03-29T12:13:13.625Z,6.10
2019-03-29T12:15:48.164Z,5.28
2019-03-29T12:18:25.466Z,5.80
2019-03-29T12:20:59.956Z,6.22
2019-03-29T12:23:34.404Z,5.62
2019-03-29T12:26:08.935Z,5.60
2019-03-29T12:28:43.380Z,6.58
2019-03-29T12:31:17.846Z,5.95
2019-03-29T12:33:52.287Z,5.95
2019-03-29T12:36:26.761Z,6.37
2019-03-29T12:39:01.852Z,5.87
2019-03-29T12:41:36.388Z,5.53
2019-03-29T12:44:10.828Z,5.80
2019-03-29T12:46:45.308Z,6.37
2019-03-29T12:49:39.170Z,5.87
2019-03-29T12:52:13.642Z,6.00
2019-03-29T12:54:48.101Z,5.50
2019-03-29T12:57:22.548Z,6.35
2019-03-29T12:59:56.988Z,6.00
2019-03-29T13:02:34.352Z,5.47
2019-03-29T13:05:07.787Z,5.03
2019-03-29T13:07:42.332Z,5.87
2019-03-29T13:10:16.854Z,6.50
2019-03-29T13:12:52.535Z,6.95
2019-03-29T13:15:27.039Z,6.92
2019-03-29T13:18:01.509Z,6.95
2019-03-29T13:20:35.934Z,7.53
2019-03-29T13:23:10.413Z,7.12
2019-03-29T13:25:44.850Z,6.92
2019-03-29T13:28:19.756Z,7.40
2019-03-29T13:30:55.268Z,6.83
2019-03-29T13:33:29.766Z,6.65
2019-03-29T13:36:04.207Z,7.15
2019-03-29T13:38:38.860Z,7.10
2019-03-29T13:41:13.260Z,7.58
2019-03-29T13:43:47.737Z,7.12
2019-03-29T13:46:22.167Z,6.65
2019-03-29T13:48:56.644Z,7.53
2019-03-29T13:51:31.084Z,7.65
2019-03-29T13:54:05.550Z,7.42
2019-03-29T13:56:39.978Z,7.03
2019-03-29T13:59:14.450Z,7.10
2019-03-29T14:01:48.890Z,7.12
2019-03-29T14:04:23.353Z,7.28
2019-03-29T14:07:00.000Z,6.42
2019-03-29T14:09:34.467Z,6.70
2019-03-29T14:12:08.911Z,6.70
2019-03-29T14:14:43.385Z,7.10
2019-03-29T14:17:20.652Z,6.80
2019-03-29T14:19:55.107Z,6.37
2019-03-29T14:22:29.553Z,7.20
2019-03-29T14:25:06.639Z,6.97
2019-03-29T14:27:41.740Z,6.85
2019-03-29T14:30:16.213Z,7.70
2019-03-29T14:32:51.826Z,6.83
2019-03-29T14:35:26.306Z,7.15
2019-03-29T14:38:02.850Z,7.58
2019-03-29T14:40:38.083Z,6.58
2019-03-29T14:43:13.684Z,6.80
2019-03-29T14:45:48.152Z,7.08
2019-03-29T14:48:22.591Z,9.05
2019-03-29T14:50:57.064Z,8.35
2019-03-29T14:53:31.507Z,7.70
2019-03-29T14:56:05.975Z,10.40
2019-03-29T14:58:40.418Z,12.60
2019-03-29T15:01:15.138Z,11.00
2019-03-29T15:03:49.584Z,15.30
2019-03-29T15:06:24.094Z,13.38
2019-03-29T15:08:58.526Z,12.93
2019-03-29T15:11:33.019Z,13.88
2019-03-29T15:14:07.470Z,13.15
2019-03-29T15:16:42.811Z,19.15
2019-03-29T15:19:17.331Z,14.87
2019-03-29T15:21:51.798Z,8.68
2019-03-29T15:24:26.235Z,8.53
2019-03-29T15:27:00.717Z,20.40
2019-03-29T15:29:35.165Z,20.50
2019-03-29T15:32:09.752Z,26.97
2019-03-29T15:34:45.178Z,24.23
2019-03-29T15:37:19.652Z,27.58
2019-03-29T15:39:54.113Z,19.70
2019-03-29T15:42:28.576Z,19.65
2019-03-29T15:45:03.455Z,26.35
2019-03-29T15:47:40.210Z,14.80
2019-03-29T15:50:14.012Z,9.50
2019-03-29T15:52:48.487Z,9.10
2019-03-29T15:55:22.923Z,31.77
2019-03-29T15:57:57.403Z,26.07
2019-03-29T16:00:31.812Z,11.88
2019-03-29T16:03:06.256Z,12.05
2019-03-29T16:05:40.706Z,17.25
2019-03-29T16:08:15.200Z,16.25
2019-03-29T16:10:49.643Z,15.08
2019-03-29T16:13:24.130Z,10.18
2019-03-29T16:15:58.573Z,10.68
2019-03-29T16:18:35.469Z,11.93
2019-03-29T16:21:09.924Z,11.28
2019-03-29T16:23:44.401Z,10.28
2019-03-29T16:26:18.842Z,10.90
2019-03-29T16:28:53.895Z,10.45
2019-03-29T16:31:28.356Z,9.03
2019-03-29T16:34:02.860Z,10.03
2019-03-29T16:36:37.316Z,10.30
2019-03-29T16:39:11.799Z,9.35
2019-03-29T16:41:46.886Z,10.20
2019-03-29T16:44:21.332Z,11.05
2019-03-29T16:46:55.776Z,10.45
2019-03-29T16:49:30.833Z,9.58
2019-03-29T16:52:05.274Z,10.55
2019-03-29T16:54:39.760Z,17.50
2019-03-29T16:57:16.669Z,21.35
2019-03-29T16:59:50.398Z,16.57
2019-03-29T17:02:24.830Z,15.68
2019-03-29T17:04:59.315Z,13.70
2019-03-29T17:07:33.778Z,15.40
2019-03-29T17:10:08.845Z,16.32
2019-03-29T17:12:43.298Z,16.27
2019-03-29T17:15:17.779Z,18.00
2019-03-29T17:17:52.231Z,16.20
2019-03-29T17:20:27.378Z,13.38
2019-03-29T17:23:01.903Z,12.60
2019-03-29T17:25:36.393Z,12.13
2019-03-29T17:28:10.846Z,11.53
2019-03-29T17:30:46.971Z,10.88
2019-03-29T17:33:24.677Z,9.38
2019-03-29T17:36:00.818Z,8.85
2019-03-29T17:38:36.888Z,10.05
2019-03-29T17:41:11.628Z,10.23
2019-03-29T17:43:46.086Z,10.23
2019-03-29T17:46:20.664Z,8.90
2019-03-29T17:48:55.086Z,9.40
2019-03-29T17:51:29.571Z,9.50
2019-03-29T17:54:04.013Z,8.43
2019-03-29T17:56:38.489Z,8.38
2019-03-29T17:59:12.930Z,9.30
2019-03-29T18:01:48.470Z,9.53
2019-03-29T18:04:22.923Z,8.65
2019-03-29T18:06:57.398Z,9.30
2019-03-29T18:09:34.508Z,8.65
2019-03-29T18:12:11.481Z,8.45
2019-03-29T18:14:46.146Z,8.58
2019-03-29T18:17:23.130Z,9.35
2019-03-29T18:19:58.643Z,8.85
2019-03-29T18:22:33.286Z,9.55
2019-03-29T18:25:07.798Z,10.38
2019-03-29T18:27:42.306Z,10.60
2019-03-29T18:30:16.825Z,10.38
2019-03-29T18:32:52.954Z,10.98
2019-03-29T18:35:27.405Z,12.03
2019-03-29T18:38:01.925Z,11.88
2019-03-29T18:40:36.379Z,12.03
2019-03-29T18:43:10.876Z,12.35
2019-03-29T18:45:46.402Z,14.58
2019-03-29T18:48:20.842Z,14.00
2019-03-29T18:50:55.264Z,13.48
2019-03-29T18:53:29.748Z,11.75
2019-03-29T18:56:04.189Z,10.32
2019-03-29T18:58:38.663Z,10.43
2019-03-29T19:01:13.066Z,10.30
2019-03-29T19:03:47.899Z,11.45
2019-03-29T19:06:23.038Z,10.55
2019-03-29T19:08:59.281Z,10.10
2019-03-29T19:11:35.823Z,10.70
2019-03-29T19:14:11.778Z,10.80
2019-03-29T19:16:58.372Z,11.73
2019-03-29T19:19:23.629Z,10.35
2019-03-29T19:21:58.195Z,12.05
2019-03-29T19:24:34.079Z,12.50
2019-03-29T19:27:10.335Z,11.40
2019-03-29T19:29:45.503Z,11.57
2019-03-29T19:32:20.214Z,12.33
2019-03-29T19:34:54.863Z,13.22
2019-03-29T19:37:29.380Z,13.55
2019-03-29T19:40:05.987Z,15.15
2019-03-29T19:42:40.562Z,14.25
2019-03-29T19:45:15.780Z,14.18
2019-03-29T19:47:50.292Z,12.95
2019-03-29T19:50:24.767Z,13.55
2019-03-29T19:52:59.250Z,13.53
2019-03-29T19:55:33.766Z,14.13
2019-03-29T19:58:08.200Z,15.00
2019-03-29T20:00:42.702Z,13.18
2019-03-29T20:03:17.104Z,12.85
2019-03-29T20:05:54.381Z,14.28
2019-03-29T20:08:28.888Z,13.72
2019-03-29T20:11:03.705Z,13.43
2019-03-29T20:13:38.212Z,13.75
2019-03-29T20:16:15.721Z,12.95
2019-03-29T20:18:50.154Z,13.68
2019-03-29T20:21:24.629Z,13.83
2019-03-29T20:23:59.068Z,14.78
2019-03-29T20:26:34.212Z,14.20
2019-03-29T20:29:09.319Z,15.45
2019-03-29T20:31:44.465Z,15.05
2019-03-29T20:34:18.910Z,15.98
2019-03-29T20:36:53.391Z,16.20
2019-03-29T20:39:29.465Z,15.78
2019-03-29T20:42:05.582Z,16.23
2019-03-29T20:44:41.719Z,16.77
2019-03-29T20:47:16.185Z,15.05
2019-03-29T20:49:52.254Z,16.75
2019-03-29T20:52:28.022Z,16.00
2019-03-29T20:55:02.462Z,17.32
2019-03-29T20:57:36.931Z,17.10
2019-03-29T21:00:12.501Z,17.55
2019-03-29T21:02:46.930Z,17.02
2019-03-29T21:05:21.424Z,16.77
2019-03-29T21:07:55.980Z,16.70
2019-03-29T21:10:30.483Z,18.32
2019-03-29T21:13:07.070Z,18.55
2019-03-29T21:15:42.853Z,17.40
2019-03-29T21:18:17.932Z,17.52
2019-03-29T21:20:52.951Z,17.67
2019-03-29T21:23:27.424Z,18.30
2019-03-29T21:26:01.859Z,17.75
2019-03-29T21:28:36.339Z,18.55
2019-03-29T21:31:10.861Z,18.80
2019-03-29T21:33:45.328Z,18.35
2019-03-29T21:36:19.776Z,17.25
2019-03-29T21:38:54.242Z,17.37
2019-03-29T21:41:28.744Z,17.30
2019-03-29T21:44:03.585Z,18.10
2019-03-29T21:46:38.498Z,18.70
2019-03-29T21:49:12.978Z,17.95
2019-03-29T21:51:47.411Z,17.82
2019-03-29T21:54:22.256Z,17.92
2019-03-29T21:56:56.864Z,19.15
2019-03-29T21:59:31.606Z,18.75
2019-03-29T22:02:06.059Z,19.00
2019-03-29T22:04:42.155Z,17.62
2019-03-29T22:07:16.597Z,18.23
2019-03-29T22:09:51.245Z,19.23
2019-03-29T22:12:26.151Z,18.52
2019-03-29T22:15:00.637Z,20.05
2019-03-29T22:17:35.062Z,19.55
2019-03-29T22:20:10.883Z,19.00
2019-03-29T22:22:45.394Z,18.70
2019-03-29T22:25:20.008Z,17.62
2019-03-29T22:27:54.439Z,17.90
2019-03-29T22:30:28.907Z,17.70
2019-03-29T22:33:04.107Z,17.55
2019-03-29T22:35:38.723Z,18.07
2019-03-29T22:38:13.174Z,16.50
2019-03-29T22:40:47.853Z,17.25
2019-03-29T22:43:22.284Z,17.65
2019-03-29T22:45:58.423Z,17.02
2019-03-29T22:48:32.935Z,17.75
2019-03-29T22:51:07.404Z,17.95
2019-03-29T22:53:42.920Z,17.82
2019-03-29T22:56:18.458Z,16.85
2019-03-29T22:58:52.902Z,17.60
2019-03-29T23:01:27.374Z,17.30
2019-03-29T23:04:03.607Z,18.17
2019-03-29T23:06:37.934Z,17.20
2019-03-29T23:09:12.647Z,18.20
2019-03-29T23:11:47.555Z,17.50
2019-03-29T23:14:22.076Z,17.85
2019-03-29T23:16:57.228Z,17.23
2019-03-29T23:19:31.671Z,18.45
2019-03-29T23:22:06.154Z,17.30
2019-03-29T23:24:40.597Z,17.25
2019-03-29T23:27:15.067Z,17.52
2019-03-29T23:29:49.507Z,17.42
2019-03-29T23:32:23.975Z,16.55
2019-03-29T23:34:58.417Z,17.87
2019-03-29T23:37:34.533Z,18.30
2019-03-29T23:40:10.605Z,17.70
2019-03-29T23:42:46.724Z,17.02
2019-03-29T23:45:21.161Z,17.40
2019-03-29T23:47:55.640Z,17.92
2019-03-29T23:50:30.080Z,17.52
2019-03-29T23:53:04.554Z,18.48
2019-03-29T23:55:38.997Z,17.37
2019-03-29T23:58:13.479Z,17.70
